createdAt,value
2023-04-22T00:00:16.086Z,3.40
2023-04-22T00:01:16.088Z,4.40
2023-04-22T00:02:16.109Z,4.50
2023-04-22T00:03:16.302Z,4.60
2023-04-22T00:04:16.269Z,4.80
2023-04-22T00:05:18.574Z,4.50
2023-04-22T00:06:16.040Z,5.30
2023-04-22T00:07:16.009Z,3.70
2023-04-22T00:08:16.008Z,4.00
2023-04-22T00:09:15.980Z,4.40
2023-04-22T00:10:15.983Z,3.60
2023-04-22T00:11:15.994Z,3.60
2023-04-22T00:12:15.957Z,2.80
2023-04-22T00:13:15.950Z,6.00
2023-04-22T00:14:15.942Z,4.20
2023-04-22T00:15:15.923Z,3.70
2023-04-22T00:16:15.983Z,6.70
2023-04-22T00:17:15.902Z,7.00
2023-04-22T00:18:15.908Z,4.60
2023-04-22T00:19:15.902Z,3.60
2023-04-22T00:20:15.877Z,4.30
2023-04-22T00:21:16.419Z,3.60
2023-04-22T00:22:15.874Z,5.70
2023-04-22T00:23:15.873Z,3.10
2023-04-22T00:24:15.830Z,4.00
2023-04-22T00:25:15.820Z,3.70
2023-04-22T00:26:15.855Z,4.50
2023-04-22T00:27:15.803Z,3.60
2023-04-22T00:28:15.792Z,4.30
2023-04-22T00:29:15.782Z,4.10
2023-04-22T00:30:15.797Z,4.70
2023-04-22T00:31:15.845Z,3.30
2023-04-22T00:32:15.751Z,5.90
2023-04-22T00:33:15.746Z,4.70
2023-04-22T00:34:15.725Z,3.20
2023-04-22T00:35:15.731Z,5.60
2023-04-22T00:36:15.730Z,5.80
2023-04-22T00:37:15.689Z,3.10
2023-04-22T00:38:15.685Z,5.50
2023-04-22T00:39:15.743Z,3.60
2023-04-22T00:40:15.683Z,3.70
2023-04-22T00:41:15.677Z,3.50
2023-04-22T00:42:15.641Z,4.40
2023-04-22T00:43:15.631Z,4.40
2023-04-22T00:44:15.629Z,5.00
2023-04-22T00:45:15.618Z,7.00
2023-04-22T00:46:15.642Z,3.70
2023-04-22T00:47:15.738Z,3.10
2023-04-22T00:48:15.582Z,3.60
2023-04-22T00:49:15.572Z,4.50
2023-04-22T00:50:15.598Z,4.60
2023-04-22T00:51:15.580Z,3.80
2023-04-22T00:52:15.538Z,3.90
2023-04-22T00:53:15.522Z,4.00
2023-04-22T00:54:15.523Z,4.30
2023-04-22T00:55:15.493Z,3.70
2023-04-22T00:56:15.520Z,5.80
2023-04-22T00:57:15.489Z,4.50
2023-04-22T00:58:15.468Z,4.10
2023-04-22T00:59:15.461Z,5.70
2023-04-22T01:00:15.480Z,5.60
2023-04-22T01:01:15.474Z,4.00
2023-04-22T01:02:15.464Z,4.80
2023-04-22T01:03:15.511Z,3.90
2023-04-22T01:04:15.531Z,2.60
2023-04-22T01:05:15.388Z,4.00
2023-04-22T01:06:15.418Z,3.90
2023-04-22T01:07:15.369Z,3.40
2023-04-22T01:08:15.369Z,3.40
2023-04-22T01:09:15.358Z,5.00
2023-04-22T01:10:15.357Z,3.40
2023-04-22T01:11:15.359Z,4.30
2023-04-22T01:12:15.341Z,4.10
2023-04-22T01:13:15.316Z,4.20
2023-04-22T01:14:15.309Z,3.30
2023-04-22T01:15:15.291Z,5.50
2023-04-22T01:16:15.389Z,7.20
2023-04-22T01:17:15.281Z,4.60
2023-04-22T01:18:15.268Z,3.70
2023-04-22T01:19:15.263Z,4.90
2023-04-22T01:20:15.251Z,4.50
2023-04-22T01:21:15.245Z,4.40
2023-04-22T01:22:15.242Z,3.30
2023-04-22T01:23:15.223Z,2.60
2023-04-22T01:24:15.207Z,3.50
2023-04-22T01:25:15.187Z,3.90
2023-04-22T01:26:15.500Z,4.10
2023-04-22T01:27:15.172Z,3.80
2023-04-22T01:28:15.165Z,3.20
2023-04-22T01:32:34.587Z,4.80
2023-04-22T01:33:35.571Z,4.30
2023-04-22T01:34:35.577Z,4.10
2023-04-22T01:35:35.591Z,5.20
2023-04-22T01:36:35.545Z,3.70
2023-04-22T01:37:35.528Z,6.70
2023-04-22T01:38:35.519Z,3.60
2023-04-22T01:39:35.521Z,3.30
2023-04-22T01:40:35.525Z,4.70
2023-04-22T01:41:35.501Z,4.10
2023-04-22T01:42:35.476Z,4.50
2023-04-22T01:43:35.462Z,5.50
2023-04-22T01:44:35.449Z,6.40
2023-04-22T01:45:35.510Z,4.30
2023-04-22T01:46:35.800Z,3.50
2023-04-22T01:47:35.469Z,4.60
2023-04-22T01:48:35.424Z,4.70
2023-04-22T01:49:35.427Z,3.90
2023-04-22T01:50:35.388Z,4.50
2023-04-22T01:51:35.428Z,5.20
2023-04-22T01:52:35.359Z,4.20
2023-04-22T01:53:35.354Z,6.80
2023-04-22T01:54:35.337Z,4.00
2023-04-22T01:55:35.350Z,4.40
2023-04-22T01:56:35.358Z,7.80
2023-04-22T01:57:35.316Z,3.90
2023-04-22T01:58:35.314Z,5.90
2023-04-22T01:59:35.290Z,4.50
2023-04-22T02:00:35.270Z,6.60
2023-04-22T02:01:35.355Z,4.10
2023-04-22T02:02:35.340Z,4.80
2023-04-22T02:03:35.307Z,3.90
2023-04-22T02:04:35.255Z,6.40
2023-04-22T02:05:35.234Z,5.90
2023-04-22T02:06:35.232Z,5.80
2023-04-22T02:07:35.205Z,4.80
2023-04-22T02:08:35.232Z,4.10
2023-04-22T02:09:35.188Z,4.60
2023-04-22T02:10:35.176Z,4.30
2023-04-22T02:11:35.209Z,4.80
2023-04-22T02:12:35.150Z,5.70
2023-04-22T02:13:35.142Z,4.40
2023-04-22T02:14:35.141Z,6.20
2023-04-22T02:15:35.154Z,4.50
2023-04-22T02:16:35.119Z,6.10
2023-04-22T02:17:35.100Z,3.80
2023-04-22T02:18:35.103Z,5.70
2023-04-22T02:19:35.118Z,6.70
2023-04-22T02:20:35.084Z,6.90
2023-04-22T02:21:35.072Z,4.80
2023-04-22T02:22:35.047Z,6.60
2023-04-22T02:23:35.031Z,8.70
2023-04-22T02:24:35.020Z,5.40
2023-04-22T02:25:35.016Z,5.90
2023-04-22T02:26:35.019Z,3.80
2023-04-22T02:27:34.988Z,4.00
2023-04-22T02:28:34.990Z,4.90
2023-04-22T02:29:34.966Z,4.70
2023-04-22T02:30:34.949Z,4.30
2023-04-22T02:31:35.048Z,5.00
2023-04-22T02:32:34.955Z,4.60
2023-04-22T02:33:34.937Z,5.30
2023-04-22T02:34:34.910Z,3.20
2023-04-22T02:35:34.906Z,4.40
2023-04-22T02:36:34.906Z,3.70
2023-04-22T02:37:34.880Z,4.30
2023-04-22T02:38:34.866Z,4.20
2023-04-22T02:39:34.868Z,5.60
2023-04-22T02:40:34.845Z,5.10
2023-04-22T02:41:34.861Z,6.00
2023-04-22T02:42:34.929Z,6.30
2023-04-22T02:43:34.828Z,4.20
2023-04-22T02:44:34.817Z,6.50
2023-04-22T02:45:34.794Z,6.20
2023-04-22T02:46:34.857Z,3.90
2023-04-22T02:47:34.801Z,4.10
2023-04-22T02:48:34.762Z,4.20
2023-04-22T02:49:34.758Z,5.30
2023-04-22T02:50:34.733Z,5.90
2023-04-22T02:51:34.753Z,5.70
2023-04-22T02:52:34.731Z,5.50
2023-04-22T02:53:34.709Z,4.70
2023-04-22T02:54:34.705Z,5.60
2023-04-22T02:55:34.714Z,5.30
2023-04-22T02:56:34.709Z,7.40
2023-04-22T02:57:34.675Z,5.90
2023-04-22T02:58:34.654Z,4.10
2023-04-22T02:59:34.650Z,4.70
2023-04-22T03:00:34.695Z,6.30
2023-04-22T03:01:34.710Z,8.90
2023-04-22T03:02:34.721Z,5.70
2023-04-22T03:03:34.705Z,5.10
2023-04-22T03:04:34.617Z,4.70
2023-04-22T03:05:34.596Z,5.50
2023-04-22T03:06:34.578Z,4.40
2023-04-22T03:07:34.590Z,4.10
2023-04-22T03:08:34.552Z,4.30
2023-04-22T03:09:34.531Z,5.10
2023-04-22T03:10:55.533Z,6.40
2023-04-22T03:11:34.536Z,7.10
2023-04-22T03:12:34.506Z,6.70
2023-04-22T03:13:34.498Z,6.30
2023-04-22T03:14:34.557Z,5.40
2023-04-22T03:15:34.466Z,4.50
2023-04-22T03:16:34.517Z,5.60
2023-04-22T03:17:34.490Z,3.90
2023-04-22T03:18:34.440Z,4.60
2023-04-22T03:19:34.420Z,5.30
2023-04-22T03:20:34.446Z,6.60
2023-04-22T03:21:34.441Z,5.70
2023-04-22T03:22:34.410Z,5.10
2023-04-22T03:23:34.386Z,5.80
2023-04-22T03:24:34.398Z,5.70
2023-04-22T03:25:34.418Z,5.70
2023-04-22T03:26:34.317Z,5.40
2023-04-22T03:27:34.369Z,5.60
2023-04-22T03:28:34.360Z,4.80
2023-04-22T03:29:34.316Z,5.10
2023-04-22T03:30:34.323Z,9.00
2023-04-22T03:31:34.367Z,5.20
2023-04-22T03:32:34.344Z,8.60
2023-04-22T03:33:34.232Z,9.70
2023-04-22T03:34:35.826Z,7.20
2023-04-22T03:35:34.209Z,5.60
2023-04-22T03:36:34.214Z,6.10
2023-04-22T03:37:34.235Z,7.00
2023-04-22T03:38:34.247Z,5.10
2023-04-22T03:39:34.211Z,6.50
2023-04-22T03:40:34.212Z,5.50
2023-04-22T03:41:34.287Z,4.20
2023-04-22T03:42:34.186Z,4.70
2023-04-22T03:43:34.164Z,3.90
2023-04-22T03:44:34.154Z,7.30
2023-04-22T03:45:34.156Z,4.60
2023-04-22T03:46:34.306Z,6.10
2023-04-22T03:47:34.134Z,5.40
2023-04-22T03:48:34.124Z,8.40
2023-04-22T03:49:34.060Z,5.40
2023-04-22T03:50:34.046Z,5.20
2023-04-22T03:51:34.055Z,4.40
2023-04-22T03:52:34.032Z,4.90
2023-04-22T03:53:34.002Z,6.00
2023-04-22T03:54:34.013Z,5.40
2023-04-22T03:55:33.982Z,5.70
2023-04-22T03:56:34.010Z,6.60
2023-04-22T03:57:33.975Z,6.50
2023-04-22T03:58:33.958Z,5.60
2023-04-22T03:59:33.946Z,4.90
2023-04-22T04:00:33.950Z,7.50
2023-04-22T04:01:33.933Z,4.30
2023-04-22T04:02:34.032Z,7.90
2023-04-22T04:03:34.327Z,6.00
2023-04-22T04:04:34.277Z,7.20
2023-04-22T04:05:33.909Z,5.70
2023-04-22T04:06:33.909Z,6.00
2023-04-22T04:07:33.850Z,8.70
2023-04-22T04:08:33.854Z,7.20
2023-04-22T04:09:33.830Z,7.30
2023-04-22T04:10:33.839Z,5.60
2023-04-22T04:11:33.853Z,5.50
2023-04-22T04:12:33.826Z,5.20
2023-04-22T04:13:33.794Z,10.30
2023-04-22T04:14:33.776Z,7.60
2023-04-22T04:15:33.880Z,6.00
2023-04-22T04:16:33.916Z,4.90
2023-04-22T04:17:33.782Z,4.40
2023-04-22T04:18:33.802Z,4.00
2023-04-22T04:19:33.729Z,5.60
2023-04-22T04:20:33.721Z,5.20
2023-04-22T04:21:33.741Z,5.60
2023-04-22T04:22:33.714Z,6.50
2023-04-22T04:23:33.694Z,8.60
2023-04-22T04:24:33.669Z,5.10
2023-04-22T04:25:33.681Z,6.60
2023-04-22T04:26:33.688Z,6.00
2023-04-22T04:27:33.648Z,5.50
2023-04-22T04:28:33.635Z,6.30
2023-04-22T04:29:33.621Z,4.70
2023-04-22T04:30:33.687Z,4.80
2023-04-22T04:31:33.686Z,7.10
2023-04-22T04:32:33.600Z,4.90
2023-04-22T04:33:33.576Z,4.90
2023-04-22T04:34:33.559Z,5.40
2023-04-22T04:35:33.554Z,6.80
2023-04-22T04:36:33.563Z,5.70
2023-04-22T04:37:33.535Z,8.10
2023-04-22T04:38:33.514Z,8.50
2023-04-22T04:39:33.524Z,6.90
2023-04-22T04:40:33.501Z,5.50
2023-04-22T04:41:33.527Z,4.10
2023-04-22T04:42:33.474Z,5.60
2023-04-22T04:43:33.480Z,5.20
2023-04-22T04:44:33.466Z,5.40
2023-04-22T04:45:33.446Z,5.00
2023-04-22T04:46:33.504Z,8.70
2023-04-22T04:47:33.438Z,5.10
2023-04-22T04:48:33.413Z,7.00
2023-04-22T04:49:33.398Z,4.10
2023-04-22T04:50:33.384Z,5.50
2023-04-22T04:51:33.407Z,4.00
2023-04-22T04:52:33.369Z,4.90
2023-04-22T04:53:33.365Z,5.90
2023-04-22T04:54:33.346Z,4.50
2023-04-22T04:55:33.379Z,5.20
2023-04-22T04:56:33.340Z,6.50
2023-04-22T04:57:33.312Z,5.10
2023-04-22T04:58:33.325Z,8.60
2023-04-22T04:59:33.293Z,6.80
2023-04-22T05:00:33.281Z,8.50
2023-04-22T05:01:33.435Z,7.30
2023-04-22T05:02:33.365Z,7.50
2023-04-22T05:03:33.395Z,4.60
2023-04-22T05:04:33.596Z,7.20
2023-04-22T05:05:33.227Z,5.30
2023-04-22T05:06:33.236Z,6.00
2023-04-22T05:07:33.272Z,6.10
2023-04-22T05:08:33.198Z,6.30
2023-04-22T05:09:33.221Z,7.50
2023-04-22T05:10:33.188Z,7.20
2023-04-22T05:11:33.193Z,9.40
2023-04-22T05:12:33.154Z,5.80
2023-04-22T05:13:33.194Z,8.70
2023-04-22T05:14:33.146Z,8.80
2023-04-22T05:15:33.129Z,8.20
2023-04-22T05:16:33.172Z,8.40
2023-04-22T05:17:33.123Z,5.30
2023-04-22T05:18:33.098Z,7.60
2023-04-22T05:19:33.102Z,7.70
2023-04-22T05:20:35.881Z,5.70
2023-04-22T05:21:33.101Z,11.80
2023-04-22T05:22:33.049Z,7.70
2023-04-22T05:23:33.065Z,10.70
2023-04-22T05:24:33.029Z,7.00
2023-04-22T05:25:33.031Z,7.00
2023-04-22T05:26:33.023Z,6.70
2023-04-22T05:27:33.027Z,9.00
2023-04-22T05:28:32.983Z,8.10
2023-04-22T05:29:32.988Z,6.50
2023-04-22T05:30:32.963Z,6.70
2023-04-22T05:31:33.007Z,9.30
2023-04-22T05:32:33.052Z,8.50
2023-04-22T05:33:32.940Z,7.80
2023-04-22T05:34:32.921Z,7.40
2023-04-22T05:35:32.983Z,8.80
2023-04-22T05:36:32.904Z,6.40
2023-04-22T05:37:32.906Z,8.90
2023-04-22T05:38:32.885Z,9.10
2023-04-22T05:39:32.928Z,11.00
2023-04-22T05:40:32.856Z,5.90
2023-04-22T05:41:32.854Z,9.40
2023-04-22T05:42:32.947Z,6.70
2023-04-22T05:43:32.835Z,7.10
2023-04-22T05:44:32.814Z,8.50
2023-04-22T05:45:32.884Z,9.70
2023-04-22T05:46:32.848Z,8.90
2023-04-22T05:47:32.826Z,10.40
2023-04-22T05:48:32.832Z,10.70
2023-04-22T05:49:32.770Z,8.50
2023-04-22T05:50:32.752Z,10.60
2023-04-22T05:51:32.797Z,6.20
2023-04-22T05:52:32.749Z,6.60
2023-04-22T05:53:32.724Z,9.40
2023-04-22T05:54:32.763Z,5.60
2023-04-22T05:55:32.718Z,6.10
2023-04-22T05:56:32.680Z,8.40
2023-04-22T05:57:32.798Z,9.20
2023-04-22T05:58:32.661Z,7.70
2023-04-22T05:59:32.660Z,7.90
2023-04-22T06:00:32.674Z,6.30
2023-04-22T06:01:32.639Z,9.70
2023-04-22T06:02:32.753Z,8.90
2023-04-22T06:03:32.854Z,6.50
2023-04-22T06:04:35.384Z,6.10
2023-04-22T06:05:32.630Z,6.70
2023-04-22T06:06:32.651Z,5.20
2023-04-22T06:07:32.769Z,7.80
2023-04-22T06:08:32.561Z,5.80
2023-04-22T06:09:32.572Z,6.70
2023-04-22T06:10:32.533Z,7.40
2023-04-22T06:11:32.529Z,7.60
2023-04-22T06:12:32.530Z,5.90
2023-04-22T06:13:32.528Z,8.00
2023-04-22T06:14:32.496Z,7.60
2023-04-22T06:15:32.529Z,5.30
2023-04-22T06:16:32.495Z,6.10
2023-04-22T06:17:32.508Z,5.70
2023-04-22T06:18:32.462Z,4.80
2023-04-22T06:19:32.463Z,4.70
2023-04-22T06:20:32.426Z,7.60
2023-04-22T06:21:32.417Z,7.00
2023-04-22T06:22:32.435Z,5.80
2023-04-22T06:23:32.403Z,5.60
2023-04-22T06:24:32.389Z,5.70
2023-04-22T06:25:32.412Z,6.30
2023-04-22T06:26:32.365Z,5.30
2023-04-22T06:27:32.374Z,6.20
2023-04-22T06:28:32.347Z,5.90
2023-04-22T06:29:32.347Z,7.60
2023-04-22T06:30:32.307Z,5.20
2023-04-22T06:31:32.402Z,4.30
2023-04-22T06:32:32.316Z,5.00
2023-04-22T06:33:32.304Z,4.90
2023-04-22T06:34:32.315Z,5.90
2023-04-22T06:35:32.268Z,5.20
2023-04-22T06:36:32.248Z,4.70
2023-04-22T06:37:32.342Z,4.50
2023-04-22T06:38:32.230Z,6.80
2023-04-22T06:39:32.236Z,6.10
2023-04-22T06:40:32.209Z,4.30
2023-04-22T06:41:32.206Z,7.20
2023-04-22T06:42:32.216Z,6.20
2023-04-22T06:43:32.183Z,6.10
2023-04-22T06:44:32.165Z,4.90
2023-04-22T06:45:32.162Z,5.70
2023-04-22T06:46:32.167Z,4.90
2023-04-22T06:47:32.227Z,4.10
2023-04-22T06:48:32.133Z,3.70
2023-04-22T06:49:32.118Z,4.50
2023-04-22T06:50:32.135Z,3.80
2023-04-22T06:51:32.103Z,4.10
2023-04-22T06:52:32.138Z,4.00
2023-04-22T06:53:32.078Z,5.00
2023-04-22T06:54:32.082Z,4.40
2023-04-22T06:55:32.085Z,4.10
2023-04-22T06:56:32.047Z,3.70
2023-04-22T06:57:32.057Z,4.40
2023-04-22T06:58:32.006Z,5.10
2023-04-22T06:59:32.017Z,4.50
2023-04-22T07:00:32.009Z,4.90
2023-04-22T07:01:32.023Z,5.20
2023-04-22T07:02:32.026Z,5.50
2023-04-22T07:03:32.163Z,4.50
2023-04-22T07:04:32.001Z,3.50
2023-04-22T07:05:31.958Z,3.30
2023-04-22T07:06:32.001Z,5.80
2023-04-22T07:07:31.944Z,4.90
2023-04-22T07:08:31.921Z,3.80
2023-04-22T07:09:31.974Z,3.50
2023-04-22T07:10:31.884Z,5.10
2023-04-22T07:11:31.894Z,4.10
2023-04-22T07:12:31.908Z,4.60
2023-04-22T07:13:31.858Z,4.40
2023-04-22T07:14:31.849Z,5.10
2023-04-22T07:15:31.887Z,4.00
2023-04-22T07:16:31.908Z,6.30
2023-04-22T07:17:31.867Z,5.80
2023-04-22T07:18:31.828Z,5.60
2023-04-22T07:19:33.269Z,4.00
2023-04-22T07:20:31.788Z,3.50
2023-04-22T07:21:31.811Z,4.50
2023-04-22T07:22:31.777Z,5.80
2023-04-22T07:23:31.749Z,3.60
2023-04-22T07:24:31.789Z,4.30
2023-04-22T07:25:31.727Z,5.70
2023-04-22T07:26:31.740Z,4.60
2023-04-22T07:27:31.815Z,5.70
2023-04-22T07:28:31.706Z,5.50
2023-04-22T07:29:31.696Z,3.80
2023-04-22T07:30:31.724Z,4.40
2023-04-22T07:31:31.670Z,3.60
2023-04-22T07:32:31.750Z,6.10
2023-04-22T07:33:31.640Z,3.60
2023-04-22T07:34:31.638Z,4.10
2023-04-22T07:35:31.641Z,4.00
2023-04-22T07:36:31.615Z,4.50
2023-04-22T07:37:31.669Z,4.50
2023-04-22T07:38:31.585Z,5.00
2023-04-22T07:39:31.581Z,4.30
2023-04-22T07:40:31.605Z,4.20
2023-04-22T07:41:31.562Z,4.30
2023-04-22T07:42:31.615Z,4.70
2023-04-22T07:43:31.550Z,5.80
2023-04-22T07:44:31.528Z,4.20
2023-04-22T07:45:31.564Z,5.30
2023-04-22T07:46:31.546Z,2.90
2023-04-22T07:47:31.533Z,3.70
2023-04-22T07:48:31.477Z,4.20
2023-04-22T07:49:31.501Z,4.40
2023-04-22T07:50:31.463Z,4.90
2023-04-22T07:51:31.458Z,4.40
2023-04-22T07:52:31.467Z,5.40
2023-04-22T07:53:31.444Z,3.90
2023-04-22T07:54:31.459Z,3.40
2023-04-22T07:55:31.412Z,4.20
2023-04-22T07:56:31.413Z,4.50
2023-04-22T07:57:31.425Z,3.40
2023-04-22T07:58:31.394Z,3.70
2023-04-22T07:59:31.402Z,4.40
2023-04-22T08:00:31.413Z,3.30
2023-04-22T08:01:31.355Z,4.10
2023-04-22T08:02:31.499Z,3.50
2023-04-22T08:03:31.539Z,5.10
2023-04-22T08:04:31.514Z,3.40
2023-04-22T08:05:31.328Z,5.50
2023-04-22T08:06:31.305Z,5.50
2023-04-22T08:07:33.505Z,3.90
2023-04-22T08:08:31.309Z,4.00
2023-04-22T08:09:31.290Z,4.60
2023-04-22T08:10:31.281Z,4.10
2023-04-22T08:11:31.258Z,4.00
2023-04-22T08:12:31.286Z,4.30
2023-04-22T08:13:31.238Z,6.00
2023-04-22T08:14:31.258Z,4.40
2023-04-22T08:15:31.217Z,3.70
2023-04-22T08:16:31.192Z,5.80
2023-04-22T08:17:31.264Z,4.80
2023-04-22T08:18:31.187Z,4.20
2023-04-22T08:19:31.172Z,3.40
2023-04-22T08:20:31.154Z,4.20
2023-04-22T08:21:31.159Z,5.10
2023-04-22T08:22:31.161Z,4.30
2023-04-22T08:23:31.136Z,4.00
2023-04-22T08:24:31.121Z,4.00
2023-04-22T08:25:31.110Z,5.20
2023-04-22T08:26:31.096Z,3.90
2023-04-22T08:27:31.096Z,4.20
2023-04-22T08:28:31.076Z,5.20
2023-04-22T08:29:31.065Z,3.70
2023-04-22T08:30:31.057Z,4.30
2023-04-22T08:31:31.083Z,4.40
2023-04-22T08:32:31.095Z,4.30
2023-04-22T08:33:31.067Z,3.60
2023-04-22T08:34:31.017Z,4.50
2023-04-22T08:35:31.010Z,5.30
2023-04-22T08:36:31.020Z,4.70
2023-04-22T08:37:31.011Z,3.20
2023-04-22T08:38:30.973Z,3.70
2023-04-22T08:39:31.000Z,3.70
2023-04-22T08:40:30.956Z,3.90
2023-04-22T08:41:30.950Z,3.90
2023-04-22T08:42:30.993Z,3.90
2023-04-22T08:43:30.927Z,4.60
2023-04-22T08:44:30.902Z,4.20
2023-04-22T08:45:30.935Z,5.00
2023-04-22T08:46:30.932Z,3.70
2023-04-22T08:47:30.902Z,4.30
2023-04-22T08:48:30.892Z,3.30
2023-04-22T08:49:30.853Z,4.10
2023-04-22T08:50:30.854Z,3.60
2023-04-22T08:51:30.850Z,3.30
2023-04-22T08:52:30.859Z,5.40
2023-04-22T08:53:30.826Z,4.50
2023-04-22T08:54:30.810Z,3.40
2023-04-22T08:55:30.796Z,3.50
2023-04-22T08:56:30.797Z,4.70
2023-04-22T08:57:30.805Z,4.70
2023-04-22T08:58:30.774Z,4.50
2023-04-22T08:59:30.752Z,5.00
2023-04-22T09:00:30.747Z,5.70
2023-04-22T09:01:30.792Z,5.20
2023-04-22T09:02:30.790Z,4.00
2023-04-22T09:03:30.773Z,3.30
2023-04-22T09:04:30.762Z,3.30
2023-04-22T09:05:30.707Z,4.10
2023-04-22T09:06:30.696Z,3.80
2023-04-22T09:07:30.734Z,3.90
2023-04-22T09:08:30.811Z,4.20
2023-04-22T09:09:30.700Z,3.30
2023-04-22T09:10:31.881Z,5.00
2023-04-22T09:11:30.646Z,3.30
2023-04-22T09:12:30.661Z,2.90
2023-04-22T09:13:30.615Z,3.80
2023-04-22T09:14:30.599Z,5.00
2023-04-22T09:15:30.647Z,2.60
2023-04-22T09:16:30.627Z,3.90
2023-04-22T09:17:30.680Z,3.70
2023-04-22T09:18:30.590Z,3.30
2023-04-22T09:19:30.537Z,3.70
2023-04-22T09:20:30.582Z,2.70
2023-04-22T09:21:30.519Z,4.40
2023-04-22T09:22:30.543Z,3.70
2023-04-22T09:23:30.499Z,3.40
2023-04-22T09:24:30.498Z,3.70
2023-04-22T09:25:30.486Z,4.40
2023-04-22T09:26:30.470Z,3.40
2023-04-22T09:27:30.607Z,3.10
2023-04-22T09:28:30.451Z,3.40
2023-04-22T09:29:30.476Z,2.70
2023-04-22T09:30:30.469Z,2.80
2023-04-22T09:31:30.524Z,4.00
2023-04-22T09:32:30.472Z,3.90
2023-04-22T09:33:30.432Z,4.10
2023-04-22T09:34:30.414Z,3.60
2023-04-22T09:35:30.431Z,4.00
2023-04-22T09:36:30.428Z,3.20
2023-04-22T09:37:39.292Z,3.80
2023-04-22T09:38:30.352Z,3.30
2023-04-22T09:39:30.326Z,4.10
2023-04-22T09:40:30.319Z,4.00
2023-04-22T09:41:30.372Z,2.60
2023-04-22T09:42:30.319Z,3.60
2023-04-22T09:43:30.289Z,3.10
2023-04-22T09:44:30.300Z,3.60
2023-04-22T09:45:30.266Z,4.70
2023-04-22T09:46:30.297Z,3.20
2023-04-22T09:47:30.307Z,2.90
2023-04-22T09:48:30.272Z,4.00
2023-04-22T09:49:30.223Z,3.50
2023-04-22T09:50:30.231Z,2.50
2023-04-22T09:51:30.212Z,4.30
2023-04-22T09:52:30.220Z,5.50
2023-04-22T09:53:30.177Z,4.70
2023-04-22T09:54:30.276Z,3.80
2023-04-22T09:55:30.169Z,3.60
2023-04-22T09:56:30.211Z,2.60
2023-04-22T09:57:30.200Z,3.70
2023-04-22T09:58:30.143Z,3.50
2023-04-22T09:59:30.164Z,2.60
2023-04-22T10:00:30.129Z,3.60
2023-04-22T10:01:30.184Z,2.90
2023-04-22T10:02:30.301Z,3.40
2023-04-22T10:03:30.100Z,2.70
2023-04-22T10:04:30.238Z,3.20
2023-04-22T10:05:30.060Z,2.90
2023-04-22T10:06:30.055Z,2.60
2023-04-22T10:07:30.118Z,3.90
2023-04-22T10:08:30.021Z,4.10
2023-04-22T10:09:30.059Z,4.20
2023-04-22T10:10:30.027Z,3.00
2023-04-22T10:11:29.997Z,3.30
2023-04-22T10:12:35.797Z,3.30
2023-04-22T10:13:29.976Z,2.60
2023-04-22T10:14:29.980Z,3.10
2023-04-22T10:15:29.959Z,3.50
2023-04-22T10:16:29.985Z,3.10
2023-04-22T10:17:29.977Z,3.90
2023-04-22T10:18:29.955Z,3.40
2023-04-22T10:19:29.915Z,3.20
2023-04-22T10:20:29.906Z,2.70
2023-04-22T10:21:29.907Z,3.20
2023-04-22T10:22:29.935Z,2.80
2023-04-22T10:23:29.876Z,3.40
2023-04-22T10:24:29.878Z,3.10
2023-04-22T10:25:29.854Z,4.40
2023-04-22T10:26:29.884Z,3.90
2023-04-22T10:27:29.878Z,3.40
2023-04-22T10:28:29.828Z,3.00
2023-04-22T10:29:29.799Z,3.00
2023-04-22T10:30:29.923Z,3.40
2023-04-22T10:31:29.894Z,3.50
2023-04-22T10:32:29.808Z,3.80
2023-04-22T10:33:29.756Z,1.90
2023-04-22T10:34:29.765Z,2.70
2023-04-22T10:35:29.861Z,3.60
2023-04-22T10:36:29.743Z,2.90
2023-04-22T10:37:30.816Z,3.40
2023-04-22T10:38:29.719Z,3.60
2023-04-22T10:39:29.696Z,3.70
2023-04-22T10:40:29.706Z,3.40
2023-04-22T10:41:29.756Z,4.90
2023-04-22T10:42:29.696Z,2.60
2023-04-22T10:43:30.248Z,3.90
2023-04-22T10:44:29.656Z,3.20
2023-04-22T10:45:29.674Z,2.70
2023-04-22T10:46:29.687Z,2.60
2023-04-22T10:47:29.698Z,3.50
2023-04-22T10:48:29.615Z,2.60
2023-04-22T10:49:29.596Z,2.60
2023-04-22T10:50:29.720Z,2.20
2023-04-22T10:51:29.620Z,3.80
2023-04-22T10:52:29.615Z,2.10
2023-04-22T10:53:29.576Z,2.50
2023-04-22T10:54:31.962Z,4.00
2023-04-22T10:55:29.573Z,3.30
2023-04-22T10:56:29.530Z,2.10
2023-04-22T10:57:29.526Z,3.00
2023-04-22T10:58:29.555Z,3.20
2023-04-22T10:59:29.525Z,3.80
2023-04-22T11:00:35.315Z,3.00
2023-04-22T11:01:29.508Z,3.10
2023-04-22T11:02:29.549Z,2.20
2023-04-22T11:03:30.159Z,3.00
2023-04-22T11:04:29.463Z,2.00
2023-04-22T11:05:29.436Z,3.40
2023-04-22T11:06:29.469Z,2.40
2023-04-22T11:07:29.437Z,2.50
2023-04-22T11:08:29.416Z,3.10
2023-04-22T11:09:29.459Z,2.90
2023-04-22T11:10:29.380Z,2.20
2023-04-22T11:11:29.376Z,2.40
2023-04-22T11:12:29.393Z,3.50
2023-04-22T11:13:29.348Z,1.70
2023-04-22T11:14:29.347Z,3.30
2023-04-22T11:15:29.320Z,3.90
2023-04-22T11:16:29.388Z,3.40
2023-04-22T11:17:29.389Z,2.50
2023-04-22T11:18:29.304Z,2.90
2023-04-22T11:19:29.322Z,3.30
2023-04-22T11:20:29.296Z,2.20
2023-04-22T11:21:29.277Z,4.80
2023-04-22T11:22:29.322Z,2.00
2023-04-22T11:23:29.255Z,3.00
2023-04-22T11:24:29.237Z,3.60
2023-04-22T11:25:29.244Z,1.90
2023-04-22T11:26:29.221Z,2.80
2023-04-22T11:27:29.255Z,2.00
2023-04-22T11:28:29.190Z,2.20
2023-04-22T11:29:29.270Z,2.60
2023-04-22T11:30:29.183Z,4.10
2023-04-22T11:31:29.254Z,2.20
2023-04-22T11:32:29.277Z,1.90
2023-04-22T11:33:29.157Z,2.40
2023-04-22T11:34:29.123Z,2.10
2023-04-22T11:35:29.171Z,3.30
2023-04-22T11:36:29.115Z,2.60
2023-04-22T11:37:29.245Z,2.20
2023-04-22T11:38:29.168Z,1.90
2023-04-22T11:39:29.079Z,2.20
2023-04-22T11:40:31.609Z,2.00
2023-04-22T11:41:29.050Z,2.10
2023-04-22T11:42:29.093Z,1.80
2023-04-22T11:43:29.044Z,2.80
2023-04-22T11:44:29.028Z,1.80
2023-04-22T11:45:29.045Z,3.10
2023-04-22T11:46:29.157Z,2.10
2023-04-22T11:47:29.022Z,2.00
2023-04-22T11:48:29.001Z,2.80
2023-04-22T11:49:28.984Z,2.70
2023-04-22T11:50:29.045Z,2.40
2023-04-22T11:51:28.955Z,2.10
2023-04-22T11:52:28.965Z,2.30
2023-04-22T11:53:28.921Z,2.50
2023-04-22T11:54:28.940Z,2.20
2023-04-22T11:55:28.926Z,1.70
2023-04-22T11:56:28.915Z,1.90
2023-04-22T11:57:28.900Z,4.30
2023-04-22T11:58:28.872Z,3.60
2023-04-22T11:59:28.860Z,1.90
2023-04-22T12:00:28.853Z,2.20
2023-04-22T12:01:28.864Z,4.80
2023-04-22T12:02:28.902Z,4.70
2023-04-22T12:03:29.200Z,2.40
2023-04-22T12:04:28.798Z,2.30
2023-04-22T12:05:28.837Z,1.80
2023-04-22T12:06:28.782Z,2.30
2023-04-22T12:07:28.789Z,1.90
2023-04-22T12:08:28.773Z,2.40
2023-04-22T12:09:28.748Z,2.00
2023-04-22T12:10:28.759Z,1.60
2023-04-22T12:11:28.733Z,2.80
2023-04-22T12:12:28.759Z,3.00
2023-04-22T12:13:28.730Z,3.10
2023-04-22T12:14:28.712Z,1.30
2023-04-22T12:15:28.707Z,1.90
2023-04-22T12:16:28.713Z,2.80
2023-04-22T12:17:28.709Z,2.00
2023-04-22T12:18:28.658Z,3.10
2023-04-22T12:19:28.634Z,2.00
2023-04-22T12:20:28.660Z,1.80
2023-04-22T12:21:28.676Z,1.50
2023-04-22T12:22:28.631Z,1.80
2023-04-22T12:23:28.603Z,3.50
2023-04-22T12:24:28.588Z,1.10
2023-04-22T12:25:28.574Z,2.10
2023-04-22T12:26:28.704Z,2.10
2023-04-22T12:27:28.567Z,3.10
2023-04-22T12:28:28.562Z,4.30
2023-04-22T12:29:28.631Z,2.10
2023-04-22T12:30:28.534Z,1.90
2023-04-22T12:31:28.629Z,3.00
2023-04-22T12:32:28.599Z,4.20
2023-04-22T12:33:28.556Z,2.80
2023-04-22T12:34:28.495Z,1.70
2023-04-22T12:35:28.475Z,3.10
2023-04-22T12:36:28.468Z,1.80
2023-04-22T12:37:28.515Z,3.10
2023-04-22T12:38:28.524Z,2.20
2023-04-22T12:39:28.435Z,2.30
2023-04-22T12:40:28.571Z,3.50
2023-04-22T12:41:28.428Z,1.70
2023-04-22T12:42:28.406Z,2.00
2023-04-22T12:43:28.437Z,3.40
2023-04-22T12:44:28.381Z,1.80
2023-04-22T12:45:28.444Z,1.50
2023-04-22T12:46:28.441Z,1.70
2023-04-22T12:47:28.415Z,1.70
2023-04-22T12:48:28.364Z,1.30
2023-04-22T12:49:28.337Z,2.10
2023-04-22T12:50:28.357Z,1.70
2023-04-22T12:51:28.316Z,3.20
2023-04-22T12:52:28.328Z,1.60
2023-04-22T12:53:28.336Z,1.60
2023-04-22T12:54:28.275Z,2.00
2023-04-22T12:55:28.316Z,2.80
2023-04-22T12:56:28.287Z,1.80
2023-04-22T12:57:28.257Z,2.40
2023-04-22T12:58:28.255Z,2.10
2023-04-22T12:59:28.275Z,1.90
2023-04-22T13:00:28.213Z,2.20
2023-04-22T13:01:28.264Z,2.40
2023-04-22T13:02:28.273Z,1.40
2023-04-22T13:03:28.350Z,1.30
2023-04-22T13:04:28.271Z,1.40
2023-04-22T13:05:28.169Z,1.60
2023-04-22T13:06:28.170Z,1.50
2023-04-22T13:07:28.144Z,3.50
2023-04-22T13:08:28.224Z,1.90
2023-04-22T13:09:28.126Z,6.00
2023-04-22T13:10:28.147Z,2.30
2023-04-22T13:11:28.107Z,2.90
2023-04-22T13:12:28.102Z,3.50
2023-04-22T13:13:28.180Z,1.50
2023-04-22T13:14:28.073Z,1.40
2023-04-22T13:15:28.077Z,2.40
2023-04-22T13:16:28.098Z,1.90
2023-04-22T13:17:28.093Z,1.80
2023-04-22T13:18:28.056Z,5.30
2023-04-22T13:19:28.019Z,1.70
2023-04-22T13:20:28.143Z,1.40
2023-04-22T13:21:28.026Z,2.00